sensor_id;sensor_type;location;lat;lon;timestamp;P1;durP1;ratioP1;P2;durP2;ratioP2
84901;SDS011;75166;51.198;6.010;2024-03-25T00:01:14;9.65;;;2.83;;
84901;SDS011;75166;51.198;6.010;2024-03-25T00:03:39;10.80;;;2.80;;
84901;SDS011;75166;51.198;6.010;2024-03-25T00:06:05;10.15;;;2.63;;
84901;SDS011;75166;51.198;6.010;2024-03-25T00:08:31;10.35;;;2.80;;
84901;SDS011;75166;51.198;6.010;2024-03-25T00:10:57;10.70;;;2.90;;
84901;SDS011;75166;51.198;6.010;2024-03-25T00:13:22;12.88;;;2.88;;
84901;SDS011;75166;51.198;6.010;2024-03-25T00:15:48;12.07;;;2.83;;
84901;SDS011;75166;51.198;6.010;2024-03-25T00:18:14;11.60;;;2.90;;
84901;SDS011;75166;51.198;6.010;2024-03-25T00:20:40;10.85;;;2.72;;
84901;SDS011;75166;51.198;6.010;2024-03-25T00:23:05;11.05;;;3.03;;
84901;SDS011;75166;51.198;6.010;2024-03-25T00:25:32;11.10;;;2.97;;
84901;SDS011;75166;51.198;6.010;2024-03-25T00:27:57;8.85;;;2.50;;
84901;SDS011;75166;51.198;6.010;2024-03-25T00:30:23;12.35;;;2.90;;
84901;SDS011;75166;51.198;6.010;2024-03-25T00:32:49;12.15;;;2.92;;
84901;SDS011;75166;51.198;6.010;2024-03-25T00:35:15;11.13;;;2.72;;
84901;SDS011;75166;51.198;6.010;2024-03-25T00:37:40;11.43;;;2.80;;
84901;SDS011;75166;51.198;6.010;2024-03-25T00:40:06;10.50;;;2.47;;
84901;SDS011;75166;51.198;6.010;2024-03-25T00:42:32;11.70;;;2.85;;
84901;SDS011;75166;51.198;6.010;2024-03-25T00:44:58;10.70;;;2.50;;
84901;SDS011;75166;51.198;6.010;2024-03-25T00:47:24;10.45;;;2.75;;
84901;SDS011;75166;51.198;6.010;2024-03-25T00:49:51;11.23;;;2.55;;
84901;SDS011;75166;51.198;6.010;2024-03-25T00:52:16;10.30;;;2.60;;
84901;SDS011;75166;51.198;6.010;2024-03-25T00:54:42;9.77;;;2.55;;
84901;SDS011;75166;51.198;6.010;2024-03-25T00:57:07;11.20;;;2.50;;
84901;SDS011;75166;51.198;6.010;2024-03-25T00:59:33;11.48;;;2.58;;
84901;SDS011;75166;51.198;6.010;2024-03-25T01:01:59;11.55;;;3.00;;
84901;SDS011;75166;51.198;6.010;2024-03-25T01:04:24;9.95;;;2.53;;
84901;SDS011;75166;51.198;6.010;2024-03-25T01:06:50;9.90;;;2.55;;
84901;SDS011;75166;51.198;6.010;2024-03-25T01:09:15;10.48;;;2.53;;
84901;SDS011;75166;51.198;6.010;2024-03-25T01:11:41;9.65;;;2.38;;
84901;SDS011;75166;51.198;6.010;2024-03-25T01:14:07;10.90;;;2.88;;
84901;SDS011;75166;51.198;6.010;2024-03-25T01:16:32;11.93;;;2.70;;
84901;SDS011;75166;51.198;6.010;2024-03-25T01:18:58;11.15;;;2.50;;
84901;SDS011;75166;51.198;6.010;2024-03-25T01:21:24;9.27;;;2.35;;
84901;SDS011;75166;51.198;6.010;2024-03-25T01:23:50;11.38;;;2.55;;
84901;SDS011;75166;51.198;6.010;2024-03-25T01:26:16;12.70;;;2.80;;
84901;SDS011;75166;51.198;6.010;2024-03-25T01:28:42;11.23;;;2.85;;
84901;SDS011;75166;51.198;6.010;2024-03-25T01:31:07;10.27;;;2.92;;
84901;SDS011;75166;51.198;6.010;2024-03-25T01:33:33;9.20;;;2.45;;
84901;SDS011;75166;51.198;6.010;2024-03-25T01:36:00;10.52;;;2.85;;
84901;SDS011;75166;51.198;6.010;2024-03-25T01:38:26;12.68;;;2.85;;
84901;SDS011;75166;51.198;6.010;2024-03-25T01:40:51;12.70;;;3.17;;
84901;SDS011;75166;51.198;6.010;2024-03-25T01:43:17;14.70;;;2.70;;
84901;SDS011;75166;51.198;6.010;2024-03-25T01:45:42;12.60;;;2.83;;
84901;SDS011;75166;51.198;6.010;2024-03-25T01:48:09;11.10;;;2.67;;
84901;SDS011;75166;51.198;6.010;2024-03-25T01:50:39;9.98;;;2.55;;
84901;SDS011;75166;51.198;6.010;2024-03-25T01:53:08;12.70;;;2.95;;
84901;SDS011;75166;51.198;6.010;2024-03-25T01:55:35;12.38;;;2.70;;
84901;SDS011;75166;51.198;6.010;2024-03-25T01:58:03;13.60;;;3.38;;
84901;SDS011;75166;51.198;6.010;2024-03-25T02:00:30;10.07;;;2.67;;
84901;SDS011;75166;51.198;6.010;2024-03-25T02:02:56;10.63;;;2.38;;
84901;SDS011;75166;51.198;6.010;2024-03-25T02:05:23;11.77;;;2.97;;
84901;SDS011;75166;51.198;6.010;2024-03-25T02:07:48;12.88;;;3.00;;
84901;SDS011;75166;51.198;6.010;2024-03-25T02:10:14;16.67;;;3.25;;
84901;SDS011;75166;51.198;6.010;2024-03-25T02:12:44;9.98;;;2.78;;
84901;SDS011;75166;51.198;6.010;2024-03-25T02:15:11;10.90;;;2.70;;
84901;SDS011;75166;51.198;6.010;2024-03-25T02:17:38;12.20;;;2.88;;
84901;SDS011;75166;51.198;6.010;2024-03-25T02:20:04;9.93;;;2.47;;
84901;SDS011;75166;51.198;6.010;2024-03-25T02:22:33;11.45;;;2.80;;
84901;SDS011;75166;51.198;6.010;2024-03-25T02:24:59;9.63;;;2.63;;
84901;SDS011;75166;51.198;6.010;2024-03-25T02:27:26;8.65;;;2.30;;
84901;SDS011;75166;51.198;6.010;2024-03-25T02:30:06;10.50;;;2.47;;
84901;SDS011;75166;51.198;6.010;2024-03-25T02:32:34;9.75;;;2.50;;
84901;SDS011;75166;51.198;6.010;2024-03-25T02:35:00;11.52;;;2.30;;
84901;SDS011;75166;51.198;6.010;2024-03-25T02:37:31;9.18;;;2.35;;
84901;SDS011;75166;51.198;6.010;2024-03-25T02:39:58;9.98;;;2.40;;
84901;SDS011;75166;51.198;6.010;2024-03-25T02:42:25;11.35;;;2.85;;
84901;SDS011;75166;51.198;6.010;2024-03-25T02:44:52;9.77;;;2.58;;
84901;SDS011;75166;51.198;6.010;2024-03-25T02:47:19;8.95;;;2.45;;
84901;SDS011;75166;51.198;6.010;2024-03-25T02:49:45;12.45;;;3.10;;
84901;SDS011;75166;51.198;6.010;2024-03-25T02:52:11;11.27;;;2.47;;
84901;SDS011;75166;51.198;6.010;2024-03-25T02:54:36;12.27;;;3.00;;
84901;SDS011;75166;51.198;6.010;2024-03-25T02:57:02;9.65;;;2.63;;
84901;SDS011;75166;51.198;6.010;2024-03-25T02:59:28;14.02;;;3.22;;
84901;SDS011;75166;51.198;6.010;2024-03-25T03:01:53;13.35;;;3.03;;
84901;SDS011;75166;51.198;6.010;2024-03-25T03:04:19;13.48;;;2.75;;
84901;SDS011;75166;51.198;6.010;2024-03-25T03:06:44;11.90;;;2.88;;
84901;SDS011;75166;51.198;6.010;2024-03-25T03:09:10;11.32;;;2.42;;
84901;SDS011;75166;51.198;6.010;2024-03-25T03:11:36;10.52;;;3.20;;
84901;SDS011;75166;51.198;6.010;2024-03-25T03:14:01;12.40;;;2.50;;
84901;SDS011;75166;51.198;6.010;2024-03-25T03:16:27;9.60;;;2.60;;
84901;SDS011;75166;51.198;6.010;2024-03-25T03:18:54;10.93;;;2.63;;
84901;SDS011;75166;51.198;6.010;2024-03-25T03:21:20;9.70;;;2.40;;
84901;SDS011;75166;51.198;6.010;2024-03-25T03:23:45;10.57;;;2.38;;
84901;SDS011;75166;51.198;6.010;2024-03-25T03:26:11;9.93;;;2.42;;
84901;SDS011;75166;51.198;6.010;2024-03-25T03:28:37;9.05;;;2.30;;
84901;SDS011;75166;51.198;6.010;2024-03-25T03:31:03;10.05;;;2.60;;
84901;SDS011;75166;51.198;6.010;2024-03-25T03:33:29;9.23;;;2.47;;
84901;SDS011;75166;51.198;6.010;2024-03-25T03:35:54;9.68;;;2.30;;
84901;SDS011;75166;51.198;6.010;2024-03-25T03:38:21;10.52;;;2.50;;
84901;SDS011;75166;51.198;6.010;2024-03-25T03:41:00;9.38;;;2.10;;
84901;SDS011;75166;51.198;6.010;2024-03-25T03:43:26;10.55;;;2.10;;
84901;SDS011;75166;51.198;6.010;2024-03-25T03:45:52;8.30;;;2.13;;
84901;SDS011;75166;51.198;6.010;2024-03-25T03:48:18;8.30;;;1.90;;
84901;SDS011;75166;51.198;6.010;2024-03-25T03:50:44;11.13;;;2.72;;
84901;SDS011;75166;51.198;6.010;2024-03-25T03:53:10;8.77;;;2.08;;
84901;SDS011;75166;51.198;6.010;2024-03-25T03:55:35;9.98;;;2.30;;
84901;SDS011;75166;51.198;6.010;2024-03-25T03:58:01;10.75;;;2.50;;
84901;SDS011;75166;51.198;6.010;2024-03-25T04:00:27;8.45;;;2.40;;
84901;SDS011;75166;51.198;6.010;2024-03-25T04:02:53;8.10;;;2.13;;
84901;SDS011;75166;51.198;6.010;2024-03-25T04:05:18;11.25;;;2.58;;
84901;SDS011;75166;51.198;6.010;2024-03-25T04:07:44;10.27;;;2.35;;
84901;SDS011;75166;51.198;6.010;2024-03-25T04:10:10;8.45;;;2.22;;
84901;SDS011;75166;51.198;6.010;2024-03-25T04:12:36;12.15;;;2.50;;
84901;SDS011;75166;51.198;6.010;2024-03-25T04:15:02;8.98;;;2.20;;
84901;SDS011;75166;51.198;6.010;2024-03-25T04:17:28;8.23;;;1.80;;
84901;SDS011;75166;51.198;6.010;2024-03-25T04:19:54;9.73;;;2.38;;
84901;SDS011;75166;51.198;6.010;2024-03-25T04:22:19;10.07;;;2.13;;
84901;SDS011;75166;51.198;6.010;2024-03-25T04:24:45;8.73;;;2.10;;
84901;SDS011;75166;51.198;6.010;2024-03-25T04:27:11;7.18;;;2.10;;
84901;SDS011;75166;51.198;6.010;2024-03-25T04:29:37;8.07;;;2.20;;
84901;SDS011;75166;51.198;6.010;2024-03-25T04:32:02;9.35;;;2.28;;
84901;SDS011;75166;51.198;6.010;2024-03-25T04:34:29;9.00;;;2.40;;
84901;SDS011;75166;51.198;6.010;2024-03-25T04:36:55;9.10;;;2.00;;
84901;SDS011;75166;51.198;6.010;2024-03-25T04:39:21;8.50;;;2.20;;
84901;SDS011;75166;51.198;6.010;2024-03-25T04:41:47;8.52;;;2.15;;
84901;SDS011;75166;51.198;6.010;2024-03-25T04:44:12;9.90;;;2.40;;
84901;SDS011;75166;51.198;6.010;2024-03-25T04:46:39;8.65;;;2.17;;
84901;SDS011;75166;51.198;6.010;2024-03-25T04:49:05;8.55;;;2.33;;
84901;SDS011;75166;51.198;6.010;2024-03-25T04:51:31;9.65;;;2.35;;
84901;SDS011;75166;51.198;6.010;2024-03-25T04:53:56;8.02;;;2.30;;
84901;SDS011;75166;51.198;6.010;2024-03-25T04:56:22;9.45;;;2.15;;
84901;SDS011;75166;51.198;6.010;2024-03-25T04:58:48;8.07;;;2.13;;
84901;SDS011;75166;51.198;6.010;2024-03-25T05:01:13;9.57;;;2.40;;
84901;SDS011;75166;51.198;6.010;2024-03-25T05:03:39;7.60;;;2.15;;
84901;SDS011;75166;51.198;6.010;2024-03-25T05:06:05;8.20;;;2.30;;
84901;SDS011;75166;51.198;6.010;2024-03-25T05:08:30;8.10;;;2.00;;
84901;SDS011;75166;51.198;6.010;2024-03-25T05:10:56;7.95;;;2.00;;
84901;SDS011;75166;51.198;6.010;2024-03-25T05:13:22;9.95;;;2.22;;
84901;SDS011;75166;51.198;6.010;2024-03-25T05:15:50;8.93;;;2.35;;
84901;SDS011;75166;51.198;6.010;2024-03-25T05:18:17;9.43;;;2.40;;
84901;SDS011;75166;51.198;6.010;2024-03-25T05:20:43;9.82;;;2.45;;
84901;SDS011;75166;51.198;6.010;2024-03-25T05:23:09;8.70;;;2.40;;
84901;SDS011;75166;51.198;6.010;2024-03-25T05:25:35;8.65;;;2.50;;
84901;SDS011;75166;51.198;6.010;2024-03-25T05:28:01;7.97;;;2.03;;
84901;SDS011;75166;51.198;6.010;2024-03-25T05:30:27;6.95;;;2.20;;
84901;SDS011;75166;51.198;6.010;2024-03-25T05:32:53;8.48;;;2.03;;
84901;SDS011;75166;51.198;6.010;2024-03-25T05:35:18;9.23;;;2.47;;
84901;SDS011;75166;51.198;6.010;2024-03-25T05:37:44;11.27;;;2.50;;
84901;SDS011;75166;51.198;6.010;2024-03-25T05:40:10;9.30;;;2.40;;
84901;SDS011;75166;51.198;6.010;2024-03-25T05:42:36;7.63;;;2.33;;
84901;SDS011;75166;51.198;6.010;2024-03-25T05:45:02;7.35;;;2.03;;
84901;SDS011;75166;51.198;6.010;2024-03-25T05:47:28;7.72;;;2.30;;
84901;SDS011;75166;51.198;6.010;2024-03-25T05:49:54;10.32;;;2.50;;
84901;SDS011;75166;51.198;6.010;2024-03-25T05:52:20;8.60;;;2.30;;
84901;SDS011;75166;51.198;6.010;2024-03-25T05:54:45;9.65;;;2.70;;
84901;SDS011;75166;51.198;6.010;2024-03-25T05:57:11;8.82;;;2.40;;
84901;SDS011;75166;51.198;6.010;2024-03-25T05:59:36;9.43;;;2.50;;
84901;SDS011;75166;51.198;6.010;2024-03-25T06:02:02;10.02;;;2.58;;
84901;SDS011;75166;51.198;6.010;2024-03-25T06:04:28;9.55;;;2.40;;
84901;SDS011;75166;51.198;6.010;2024-03-25T06:06:53;8.68;;;2.50;;
84901;SDS011;75166;51.198;6.010;2024-03-25T06:09:19;8.02;;;2.35;;
84901;SDS011;75166;51.198;6.010;2024-03-25T06:11:44;8.93;;;2.40;;
84901;SDS011;75166;51.198;6.010;2024-03-25T06:14:10;8.90;;;2.40;;
84901;SDS011;75166;51.198;6.010;2024-03-25T06:16:35;9.18;;;2.65;;
84901;SDS011;75166;51.198;6.010;2024-03-25T06:19:01;8.38;;;2.50;;
84901;SDS011;75166;51.198;6.010;2024-03-25T06:21:27;9.23;;;2.58;;
84901;SDS011;75166;51.198;6.010;2024-03-25T06:23:54;8.93;;;2.42;;
84901;SDS011;75166;51.198;6.010;2024-03-25T06:26:19;9.80;;;2.63;;
84901;SDS011;75166;51.198;6.010;2024-03-25T06:28:45;9.02;;;2.50;;
84901;SDS011;75166;51.198;6.010;2024-03-25T06:31:11;10.32;;;2.50;;
84901;SDS011;75166;51.198;6.010;2024-03-25T06:33:55;7.85;;;2.45;;
84901;SDS011;75166;51.198;6.010;2024-03-25T06:36:39;9.70;;;2.60;;
84901;SDS011;75166;51.198;6.010;2024-03-25T06:39:05;11.30;;;2.95;;
84901;SDS011;75166;51.198;6.010;2024-03-25T06:41:31;7.93;;;2.42;;
84901;SDS011;75166;51.198;6.010;2024-03-25T06:43:56;9.15;;;2.45;;
84901;SDS011;75166;51.198;6.010;2024-03-25T06:46:22;8.63;;;2.47;;
84901;SDS011;75166;51.198;6.010;2024-03-25T06:48:48;9.13;;;2.50;;
84901;SDS011;75166;51.198;6.010;2024-03-25T06:51:13;9.23;;;2.45;;
84901;SDS011;75166;51.198;6.010;2024-03-25T06:53:39;9.35;;;2.97;;
84901;SDS011;75166;51.198;6.010;2024-03-25T06:56:05;10.75;;;3.05;;
84901;SDS011;75166;51.198;6.010;2024-03-25T06:58:31;8.90;;;2.28;;
84901;SDS011;75166;51.198;6.010;2024-03-25T07:01:03;9.38;;;2.75;;
84901;SDS011;75166;51.198;6.010;2024-03-25T07:05:59;11.05;;;2.65;;
84901;SDS011;75166;51.198;6.010;2024-03-25T07:08:25;10.07;;;2.60;;
84901;SDS011;75166;51.198;6.010;2024-03-25T07:10:52;10.50;;;3.42;;
84901;SDS011;75166;51.198;6.010;2024-03-25T07:13:18;11.32;;;3.08;;
84901;SDS011;75166;51.198;6.010;2024-03-25T07:15:44;12.35;;;3.25;;
84901;SDS011;75166;51.198;6.010;2024-03-25T07:18:10;12.13;;;3.40;;
84901;SDS011;75166;51.198;6.010;2024-03-25T07:20:38;13.80;;;3.47;;
84901;SDS011;75166;51.198;6.010;2024-03-25T07:23:04;12.68;;;3.35;;
84901;SDS011;75166;51.198;6.010;2024-03-25T07:25:30;11.65;;;3.50;;
84901;SDS011;75166;51.198;6.010;2024-03-25T07:27:56;11.23;;;3.70;;
84901;SDS011;75166;51.198;6.010;2024-03-25T07:30:22;11.38;;;3.33;;
84901;SDS011;75166;51.198;6.010;2024-03-25T07:32:50;9.88;;;3.10;;
84901;SDS011;75166;51.198;6.010;2024-03-25T07:35:15;13.18;;;3.33;;
84901;SDS011;75166;51.198;6.010;2024-03-25T07:37:42;9.55;;;2.92;;
84901;SDS011;75166;51.198;6.010;2024-03-25T07:40:11;13.02;;;3.40;;
84901;SDS011;75166;51.198;6.010;2024-03-25T07:42:37;11.15;;;3.40;;
84901;SDS011;75166;51.198;6.010;2024-03-25T07:45:04;10.68;;;3.42;;
84901;SDS011;75166;51.198;6.010;2024-03-25T07:47:31;12.40;;;3.30;;
84901;SDS011;75166;51.198;6.010;2024-03-25T07:49:57;11.52;;;3.47;;
84901;SDS011;75166;51.198;6.010;2024-03-25T07:52:24;10.43;;;3.28;;
84901;SDS011;75166;51.198;6.010;2024-03-25T07:54:50;13.48;;;3.45;;
84901;SDS011;75166;51.198;6.010;2024-03-25T07:57:16;11.25;;;3.28;;
84901;SDS011;75166;51.198;6.010;2024-03-25T07:59:42;10.95;;;3.17;;
84901;SDS011;75166;51.198;6.010;2024-03-25T08:02:07;12.55;;;3.63;;
84901;SDS011;75166;51.198;6.010;2024-03-25T08:04:33;14.35;;;4.05;;
84901;SDS011;75166;51.198;6.010;2024-03-25T08:06:58;14.00;;;3.88;;
84901;SDS011;75166;51.198;6.010;2024-03-25T08:09:24;10.48;;;3.40;;
84901;SDS011;75166;51.198;6.010;2024-03-25T08:11:49;12.63;;;3.80;;
84901;SDS011;75166;51.198;6.010;2024-03-25T08:14:15;11.65;;;3.30;;
84901;SDS011;75166;51.198;6.010;2024-03-25T08:19:34;54.22;;;5.95;;
84901;SDS011;75166;51.198;6.010;2024-03-25T08:22:00;43.00;;;5.57;;
84901;SDS011;75166;51.198;6.010;2024-03-25T08:24:25;34.33;;;4.65;;
84901;SDS011;75166;51.198;6.010;2024-03-25T08:26:51;31.17;;;4.53;;
84901;SDS011;75166;51.198;6.010;2024-03-25T08:29:16;21.98;;;3.63;;
84901;SDS011;75166;51.198;6.010;2024-03-25T08:31:42;26.52;;;4.20;;
84901;SDS011;75166;51.198;6.010;2024-03-25T08:34:08;23.15;;;4.05;;
84901;SDS011;75166;51.198;6.010;2024-03-25T08:36:33;25.38;;;3.85;;
84901;SDS011;75166;51.198;6.010;2024-03-25T08:38:59;24.42;;;3.83;;
84901;SDS011;75166;51.198;6.010;2024-03-25T08:41:25;19.77;;;4.03;;
84901;SDS011;75166;51.198;6.010;2024-03-25T08:43:50;20.65;;;4.07;;
84901;SDS011;75166;51.198;6.010;2024-03-25T08:46:16;19.38;;;3.53;;
84901;SDS011;75166;51.198;6.010;2024-03-25T08:48:41;19.30;;;3.80;;
84901;SDS011;75166;51.198;6.010;2024-03-25T08:51:07;17.95;;;3.63;;
84901;SDS011;75166;51.198;6.010;2024-03-25T08:53:33;20.15;;;3.58;;
84901;SDS011;75166;51.198;6.010;2024-03-25T08:55:59;14.80;;;3.75;;
84901;SDS011;75166;51.198;6.010;2024-03-25T08:58:24;18.50;;;4.13;;
84901;SDS011;75166;51.198;6.010;2024-03-25T09:00:50;15.35;;;3.65;;
84901;SDS011;75166;51.198;6.010;2024-03-25T09:03:16;16.17;;;3.53;;
84901;SDS011;75166;51.198;6.010;2024-03-25T09:05:42;19.52;;;3.78;;
84901;SDS011;75166;51.198;6.010;2024-03-25T09:08:07;15.55;;;3.65;;
84901;SDS011;75166;51.198;6.010;2024-03-25T09:10:36;16.98;;;4.00;;
84901;SDS011;75166;51.198;6.010;2024-03-25T09:13:20;16.63;;;3.53;;
84901;SDS011;75166;51.198;6.010;2024-03-25T09:15:48;14.90;;;3.35;;
84901;SDS011;75166;51.198;6.010;2024-03-25T09:18:14;16.00;;;3.72;;
84901;SDS011;75166;51.198;6.010;2024-03-25T09:20:39;15.15;;;3.40;;
84901;SDS011;75166;51.198;6.010;2024-03-25T09:23:05;14.88;;;3.83;;
84901;SDS011;75166;51.198;6.010;2024-03-25T09:25:30;14.85;;;3.55;;
84901;SDS011;75166;51.198;6.010;2024-03-25T09:27:56;13.07;;;3.60;;
84901;SDS011;75166;51.198;6.010;2024-03-25T09:30:21;16.35;;;3.88;;
84901;SDS011;75166;51.198;6.010;2024-03-25T09:32:47;14.77;;;3.40;;
84901;SDS011;75166;51.198;6.010;2024-03-25T09:35:13;13.35;;;3.70;;
84901;SDS011;75166;51.198;6.010;2024-03-25T09:37:38;15.25;;;3.28;;
84901;SDS011;75166;51.198;6.010;2024-03-25T09:40:04;13.90;;;3.47;;
84901;SDS011;75166;51.198;6.010;2024-03-25T09:42:34;13.73;;;3.33;;
84901;SDS011;75166;51.198;6.010;2024-03-25T09:45:01;13.13;;;3.22;;
84901;SDS011;75166;51.198;6.010;2024-03-25T09:47:28;16.58;;;3.65;;
84901;SDS011;75166;51.198;6.010;2024-03-25T09:49:54;13.40;;;3.55;;
84901;SDS011;75166;51.198;6.010;2024-03-25T09:52:20;16.33;;;3.60;;
84901;SDS011;75166;51.198;6.010;2024-03-25T09:54:45;13.15;;;3.53;;
84901;SDS011;75166;51.198;6.010;2024-03-25T09:57:11;14.02;;;3.47;;
84901;SDS011;75166;51.198;6.010;2024-03-25T09:59:38;12.77;;;3.60;;
84901;SDS011;75166;51.198;6.010;2024-03-25T10:02:04;13.65;;;3.58;;
84901;SDS011;75166;51.198;6.010;2024-03-25T10:04:33;13.45;;;3.17;;
84901;SDS011;75166;51.198;6.010;2024-03-25T10:07:02;15.52;;;3.67;;
84901;SDS011;75166;51.198;6.010;2024-03-25T10:09:28;12.30;;;3.50;;
84901;SDS011;75166;51.198;6.010;2024-03-25T10:11:54;11.55;;;3.28;;
84901;SDS011;75166;51.198;6.010;2024-03-25T10:14:20;14.27;;;3.60;;
84901;SDS011;75166;51.198;6.010;2024-03-25T10:16:45;14.30;;;2.95;;
84901;SDS011;75166;51.198;6.010;2024-03-25T10:19:14;11.50;;;2.97;;
84901;SDS011;75166;51.198;6.010;2024-03-25T10:21:39;15.30;;;4.18;;
84901;SDS011;75166;51.198;6.010;2024-03-25T10:24:05;13.73;;;3.50;;
84901;SDS011;75166;51.198;6.010;2024-03-25T10:26:32;11.55;;;3.35;;
84901;SDS011;75166;51.198;6.010;2024-03-25T10:29:06;13.50;;;3.38;;
84901;SDS011;75166;51.198;6.010;2024-03-25T10:31:33;10.93;;;3.00;;
84901;SDS011;75166;51.198;6.010;2024-03-25T10:33:59;11.40;;;2.80;;
84901;SDS011;75166;51.198;6.010;2024-03-25T10:36:25;10.15;;;3.10;;
84901;SDS011;75166;51.198;6.010;2024-03-25T10:38:55;11.52;;;3.20;;
84901;SDS011;75166;51.198;6.010;2024-03-25T10:41:21;10.80;;;3.00;;
84901;SDS011;75166;51.198;6.010;2024-03-25T10:43:48;11.15;;;2.90;;
84901;SDS011;75166;51.198;6.010;2024-03-25T10:46:18;11.20;;;2.50;;
84901;SDS011;75166;51.198;6.010;2024-03-25T10:48:48;10.68;;;3.00;;
84901;SDS011;75166;51.198;6.010;2024-03-25T10:51:22;10.15;;;2.70;;
84901;SDS011;75166;51.198;6.010;2024-03-25T10:53:50;11.15;;;2.90;;
84901;SDS011;75166;51.198;6.010;2024-03-25T10:56:19;9.85;;;2.63;;
84901;SDS011;75166;51.198;6.010;2024-03-25T10:58:47;11.35;;;2.53;;
84901;SDS011;75166;51.198;6.010;2024-03-25T11:01:14;9.90;;;2.80;;
84901;SDS011;75166;51.198;6.010;2024-03-25T11:03:43;10.27;;;3.03;;
84901;SDS011;75166;51.198;6.010;2024-03-25T11:06:13;11.23;;;3.10;;
84901;SDS011;75166;51.198;6.010;2024-03-25T11:08:39;9.85;;;2.60;;
84901;SDS011;75166;51.198;6.010;2024-03-25T11:11:06;9.20;;;2.33;;
84901;SDS011;75166;51.198;6.010;2024-03-25T11:13:32;10.32;;;2.38;;
84901;SDS011;75166;51.198;6.010;2024-03-25T11:15:59;8.60;;;2.35;;
84901;SDS011;75166;51.198;6.010;2024-03-25T11:18:26;10.73;;;2.60;;
84901;SDS011;75166;51.198;6.010;2024-03-25T11:21:02;10.57;;;2.40;;
84901;SDS011;75166;51.198;6.010;2024-03-25T11:23:38;10.15;;;2.53;;
84901;SDS011;75166;51.198;6.010;2024-03-25T11:26:16;9.85;;;2.72;;
84901;SDS011;75166;51.198;6.010;2024-03-25T11:28:43;7.63;;;2.00;;
84901;SDS011;75166;51.198;6.010;2024-03-25T11:31:10;8.85;;;2.40;;
84901;SDS011;75166;51.198;6.010;2024-03-25T11:33:37;8.63;;;2.30;;
84901;SDS011;75166;51.198;6.010;2024-03-25T11:36:03;12.48;;;2.47;;
84901;SDS011;75166;51.198;6.010;2024-03-25T11:38:29;8.13;;;2.20;;
84901;SDS011;75166;51.198;6.010;2024-03-25T11:40:55;8.70;;;2.60;;
84901;SDS011;75166;51.198;6.010;2024-03-25T11:43:22;11.13;;;2.40;;
84901;SDS011;75166;51.198;6.010;2024-03-25T11:45:48;9.73;;;2.47;;
84901;SDS011;75166;51.198;6.010;2024-03-25T11:48:16;8.13;;;2.45;;
84901;SDS011;75166;51.198;6.010;2024-03-25T11:50:48;10.30;;;2.35;;
84901;SDS011;75166;51.198;6.010;2024-03-25T11:53:14;9.40;;;2.30;;
84901;SDS011;75166;51.198;6.010;2024-03-25T11:55:46;8.45;;;2.20;;
84901;SDS011;75166;51.198;6.010;2024-03-25T11:58:12;8.50;;;2.00;;
84901;SDS011;75166;51.198;6.010;2024-03-25T12:00:45;9.55;;;2.40;;
84901;SDS011;75166;51.198;6.010;2024-03-25T12:03:14;8.80;;;2.42;;
84901;SDS011;75166;51.198;6.010;2024-03-25T12:05:41;9.35;;;2.13;;
84901;SDS011;75166;51.198;6.010;2024-03-25T12:08:09;8.45;;;2.08;;
84901;SDS011;75166;51.198;6.010;2024-03-25T12:10:36;9.63;;;2.15;;
84901;SDS011;75166;51.198;6.010;2024-03-25T12:13:21;9.27;;;2.47;;
84901;SDS011;75166;51.198;6.010;2024-03-25T12:15:49;9.63;;;2.20;;
84901;SDS011;75166;51.198;6.010;2024-03-25T12:18:15;7.53;;;2.00;;
84901;SDS011;75166;51.198;6.010;2024-03-25T12:20:40;8.68;;;2.13;;
84901;SDS011;75166;51.198;6.010;2024-03-25T12:23:06;6.75;;;1.95;;
84901;SDS011;75166;51.198;6.010;2024-03-25T12:25:32;6.65;;;1.90;;
84901;SDS011;75166;51.198;6.010;2024-03-25T12:27:58;10.85;;;2.70;;
84901;SDS011;75166;51.198;6.010;2024-03-25T12:30:24;7.25;;;2.03;;
84901;SDS011;75166;51.198;6.010;2024-03-25T12:32:50;9.07;;;2.20;;
84901;SDS011;75166;51.198;6.010;2024-03-25T12:35:17;7.43;;;1.92;;
84901;SDS011;75166;51.198;6.010;2024-03-25T12:37:44;7.25;;;2.20;;
84901;SDS011;75166;51.198;6.010;2024-03-25T12:40:11;8.18;;;2.22;;
84901;SDS011;75166;51.198;6.010;2024-03-25T12:42:39;7.35;;;2.28;;
84901;SDS011;75166;51.198;6.010;2024-03-25T12:45:05;8.30;;;2.22;;
84901;SDS011;75166;51.198;6.010;2024-03-25T12:47:31;8.65;;;2.03;;
84901;SDS011;75166;51.198;6.010;2024-03-25T12:49:58;7.53;;;2.28;;
84901;SDS011;75166;51.198;6.010;2024-03-25T12:52:24;9.50;;;2.30;;
84901;SDS011;75166;51.198;6.010;2024-03-25T12:54:50;8.15;;;2.00;;
84901;SDS011;75166;51.198;6.010;2024-03-25T12:57:15;9.15;;;2.10;;
84901;SDS011;75166;51.198;6.010;2024-03-25T12:59:41;10.02;;;2.13;;
84901;SDS011;75166;51.198;6.010;2024-03-25T13:02:10;9.07;;;2.10;;
84901;SDS011;75166;51.198;6.010;2024-03-25T13:04:37;7.30;;;1.92;;
84901;SDS011;75166;51.198;6.010;2024-03-25T13:07:03;7.07;;;1.95;;
84901;SDS011;75166;51.198;6.010;2024-03-25T13:09:29;8.55;;;1.80;;
84901;SDS011;75166;51.198;6.010;2024-03-25T13:11:55;8.07;;;2.00;;
84901;SDS011;75166;51.198;6.010;2024-03-25T13:14:22;6.72;;;1.95;;
84901;SDS011;75166;51.198;6.010;2024-03-25T13:16:47;6.63;;;1.83;;
84901;SDS011;75166;51.198;6.010;2024-03-25T13:19:13;8.10;;;2.00;;
84901;SDS011;75166;51.198;6.010;2024-03-25T13:21:39;8.35;;;2.20;;
84901;SDS011;75166;51.198;6.010;2024-03-25T13:24:05;8.48;;;2.10;;
84901;SDS011;75166;51.198;6.010;2024-03-25T13:26:31;8.30;;;2.00;;
84901;SDS011;75166;51.198;6.010;2024-03-25T13:28:56;7.88;;;1.92;;
84901;SDS011;75166;51.198;6.010;2024-03-25T13:31:23;8.30;;;1.83;;
84901;SDS011;75166;51.198;6.010;2024-03-25T13:33:49;8.45;;;2.00;;
84901;SDS011;75166;51.198;6.010;2024-03-25T13:36:16;6.65;;;2.03;;
84901;SDS011;75166;51.198;6.010;2024-03-25T13:38:42;6.93;;;1.98;;
84901;SDS011;75166;51.198;6.010;2024-03-25T13:41:08;7.68;;;2.00;;
84901;SDS011;75166;51.198;6.010;2024-03-25T13:43:33;9.13;;;1.98;;
84901;SDS011;75166;51.198;6.010;2024-03-25T13:45:59;7.90;;;1.80;;
84901;SDS011;75166;51.198;6.010;2024-03-25T13:48:24;5.88;;;1.80;;
84901;SDS011;75166;51.198;6.010;2024-03-25T13:50:53;8.35;;;1.85;;
84901;SDS011;75166;51.198;6.010;2024-03-25T13:53:19;7.78;;;1.70;;
84901;SDS011;75166;51.198;6.010;2024-03-25T13:55:45;8.70;;;1.77;;
84901;SDS011;75166;51.198;6.010;2024-03-25T13:58:11;7.25;;;1.83;;
84901;SDS011;75166;51.198;6.010;2024-03-25T14:00:36;8.02;;;1.98;;
84901;SDS011;75166;51.198;6.010;2024-03-25T14:03:03;5.85;;;1.90;;
84901;SDS011;75166;51.198;6.010;2024-03-25T14:05:28;9.43;;;2.25;;
84901;SDS011;75166;51.198;6.010;2024-03-25T14:07:54;6.00;;;1.88;;
84901;SDS011;75166;51.198;6.010;2024-03-25T14:10:21;6.72;;;1.80;;
84901;SDS011;75166;51.198;6.010;2024-03-25T14:12:47;7.95;;;1.70;;
84901;SDS011;75166;51.198;6.010;2024-03-25T14:15:13;5.95;;;2.00;;
84901;SDS011;75166;51.198;6.010;2024-03-25T14:17:38;6.90;;;1.88;;
84901;SDS011;75166;51.198;6.010;2024-03-25T14:20:04;5.25;;;1.60;;
84901;SDS011;75166;51.198;6.010;2024-03-25T14:22:31;4.93;;;1.60;;
84901;SDS011;75166;51.198;6.010;2024-03-25T14:24:58;6.38;;;1.67;;
84901;SDS011;75166;51.198;6.010;2024-03-25T14:27:24;6.55;;;1.70;;
84901;SDS011;75166;51.198;6.010;2024-03-25T14:29:50;8.40;;;2.20;;
84901;SDS011;75166;51.198;6.010;2024-03-25T14:32:19;7.65;;;1.70;;
84901;SDS011;75166;51.198;6.010;2024-03-25T14:34:46;6.53;;;1.70;;
84901;SDS011;75166;51.198;6.010;2024-03-25T14:37:12;6.47;;;1.88;;
84901;SDS011;75166;51.198;6.010;2024-03-25T14:39:38;9.02;;;1.83;;
84901;SDS011;75166;51.198;6.010;2024-03-25T14:42:04;7.05;;;1.63;;